Aérodrome :
LOGIN :

S'inscrire | Disclaimer

   EN    FR    IT 

 










Légende :    VFR   VFR Marginal   IFR   IFR Intensif   IFR Très Intensif
Visi : 
Plafond : 
>= 8 km
>= 3000ft
5 à 8 km
1000 à 3000 ft
1500m à 5 km
500 à 1000 ft
800 à 1500m
200 à 500 ft
< 800m
< 200 ft
Symboles :   Orages  Brouillard  Fortes neiges  Fortes précipitations  Vent > 20 kt
SIGMETs :   Divers  Orages  Givrage  Turbulence  Onde Orograph.  Cendres Volcan.






- Altitude de l'aérodrome : 194 ft
- Code IATA : LME


LFRM - Le Mans

DERNIER METAR :
  • 141300Z AUTO 20010KT 170V240 9999 FEW032 BKN064 BKN078 21/13 Q1007 TEMPO 25015G27KT 3000 SHRA SCT010 BKN020TCU

METARs EXPIRÉS :
  • 141230Z AUTO 22008KT 170V260 9999 FEW019 BKN042 OVC050 19/13 Q1007 TEMPO 25015G27KT 3000 SHRA SCT010 BKN020TCU
  • 141200Z AUTO 25009KT 200V300 9999 FEW015 BKN037 BKN043 18/13 Q1008 TEMPO 25015G27KT 3000 SHRA SCT010 BKN020TCU
  • 141130Z AUTO 23012KT 200V270 9999 BKN031 BKN037 BKN044 17/14 Q1008 TEMPO 3500 SHRA BKN020TCU
  • 141100Z AUTO 19010KT 160V230 9999 BKN033 OVC050 19/12 Q1008 TEMPO 3500 SHRA BKN020TCU
  • 141030Z AUTO 21010KT 170V250 9999 BKN030 BKN043 BKN050 20/13 Q1008 TEMPO 3500 SHRA BKN020TCU
  • 141000Z AUTO 20010KT 170V230 9999 BKN029 BKN044 OVC050 18/12 Q1008 TEMPO 3500 SHRA BKN020TCU
  • 140930Z AUTO 19009KT 140V220 9999 BKN024 OVC031 18/13 Q1008 TEMPO 3500 SHRA BKN020TCU
  • 140900Z AUTO 19008KT 150V230 9999 SCT023 SCT033 OVC050 18/13 Q1008 TEMPO 3500 SHRA BKN020TCU
  • 140830Z AUTO 20006KT 170V230 9999 FEW019 OVC047 17/13 Q1009 TEMPO 3500 SHRA BKN020TCU

TAF TAF LFRM
Valide du 14 à 12h jusqu'au 15 à 12h UTC


141100Z 1412/1512 21012KT 9999 BKN030
TEMPO 1412/1422 25015G27KT 3000 SHRA SCT010 BKN020TCU
TEMPO 1510/1512 22015G25KT 3000 SHRA BKN025TCU



MET'MAP, la Météo Aéronautique d'un coup d'oeil ! - Copyright ORBIFLY Décembre 2007 - Disclaimer

ORBIFLY MET'MAP TEAM :

Programmation & Développement : Alexandra Zaïnal
Sur une idée originale de : Baudouin d'Aumeries
Soutien technique & logistique : Manuel Goepfert
Assistance : Marc-Olivier Méhu




SOURCES & CREDITS :

   NOAA